sensor_id;sensor_type;location;lat;lon;timestamp;P1;durP1;ratioP1;P2;durP2;ratioP2
4555;SDS011;2290;48.674;9.018;2023-02-17T00:01:20;3.27;;;2.63;;
4555;SDS011;2290;48.674;9.018;2023-02-17T00:03:48;5.17;;;2.93;;
4555;SDS011;2290;48.674;9.018;2023-02-17T00:06:19;4.57;;;2.90;;
4555;SDS011;2290;48.674;9.018;2023-02-17T00:08:47;5.20;;;3.10;;
4555;SDS011;2290;48.674;9.018;2023-02-17T00:11:13;3.80;;;3.00;;
4555;SDS011;2290;48.674;9.018;2023-02-17T00:13:39;4.70;;;2.60;;
4555;SDS011;2290;48.674;9.018;2023-02-17T00:16:11;6.33;;;3.23;;
4555;SDS011;2290;48.674;9.018;2023-02-17T00:18:39;4.23;;;2.47;;
4555;SDS011;2290;48.674;9.018;2023-02-17T00:21:11;4.97;;;2.87;;
4555;SDS011;2290;48.674;9.018;2023-02-17T00:23:40;4.63;;;3.07;;
4555;SDS011;2290;48.674;9.018;2023-02-17T00:26:06;5.30;;;3.37;;
4555;SDS011;2290;48.674;9.018;2023-02-17T00:28:31;5.50;;;3.67;;
4555;SDS011;2290;48.674;9.018;2023-02-17T00:30:57;5.03;;;3.60;;
4555;SDS011;2290;48.674;9.018;2023-02-17T00:33:23;3.87;;;2.40;;
4555;SDS011;2290;48.674;9.018;2023-02-17T00:35:50;4.37;;;2.77;;
4555;SDS011;2290;48.674;9.018;2023-02-17T00:38:15;4.07;;;2.63;;
4555;SDS011;2290;48.674;9.018;2023-02-17T00:40:41;6.33;;;2.60;;
4555;SDS011;2290;48.674;9.018;2023-02-17T00:43:08;4.53;;;2.63;;
4555;SDS011;2290;48.674;9.018;2023-02-17T00:45:34;7.80;;;2.53;;
4555;SDS011;2290;48.674;9.018;2023-02-17T00:47:59;3.47;;;2.37;;
4555;SDS011;2290;48.674;9.018;2023-02-17T00:50:25;6.37;;;2.83;;
4555;SDS011;2290;48.674;9.018;2023-02-17T00:52:51;4.67;;;2.50;;
4555;SDS011;2290;48.674;9.018;2023-02-17T00:55:16;3.43;;;2.63;;
4555;SDS011;2290;48.674;9.018;2023-02-17T00:57:42;3.60;;;2.80;;
4555;SDS011;2290;48.674;9.018;2023-02-17T01:00:08;3.07;;;2.40;;
4555;SDS011;2290;48.674;9.018;2023-02-17T01:02:36;4.07;;;2.90;;
4555;SDS011;2290;48.674;9.018;2023-02-17T01:05:02;6.03;;;2.77;;
4555;SDS011;2290;48.674;9.018;2023-02-17T01:07:30;8.70;;;2.77;;
4555;SDS011;2290;48.674;9.018;2023-02-17T01:09:58;4.33;;;3.13;;
4555;SDS011;2290;48.674;9.018;2023-02-17T01:12:23;5.60;;;2.60;;
4555;SDS011;2290;48.674;9.018;2023-02-17T01:14:50;3.80;;;2.40;;
4555;SDS011;2290;48.674;9.018;2023-02-17T01:17:16;5.47;;;3.27;;
4555;SDS011;2290;48.674;9.018;2023-02-17T01:19:43;4.57;;;2.70;;
4555;SDS011;2290;48.674;9.018;2023-02-17T01:22:08;3.97;;;2.60;;
4555;SDS011;2290;48.674;9.018;2023-02-17T01:24:34;4.50;;;2.57;;
4555;SDS011;2290;48.674;9.018;2023-02-17T01:27:02;5.13;;;2.57;;
4555;SDS011;2290;48.674;9.018;2023-02-17T01:29:27;4.70;;;2.77;;
4555;SDS011;2290;48.674;9.018;2023-02-17T01:31:53;3.70;;;2.77;;
4555;SDS011;2290;48.674;9.018;2023-02-17T01:34:19;4.10;;;2.87;;
4555;SDS011;2290;48.674;9.018;2023-02-17T01:36:44;4.13;;;2.20;;
4555;SDS011;2290;48.674;9.018;2023-02-17T01:39:14;5.73;;;2.40;;
4555;SDS011;2290;48.674;9.018;2023-02-17T01:41:40;4.53;;;3.00;;
4555;SDS011;2290;48.674;9.018;2023-02-17T01:44:17;4.10;;;2.50;;
4555;SDS011;2290;48.674;9.018;2023-02-17T01:46:47;3.83;;;2.50;;
4555;SDS011;2290;48.674;9.018;2023-02-17T01:52:18;5.20;;;2.90;;
4555;SDS011;2290;48.674;9.018;2023-02-17T01:54:57;4.57;;;2.20;;
4555;SDS011;2290;48.674;9.018;2023-02-17T01:57:28;5.70;;;2.10;;
4555;SDS011;2290;48.674;9.018;2023-02-17T01:59:56;3.57;;;2.70;;
4555;SDS011;2290;48.674;9.018;2023-02-17T02:02:24;3.23;;;2.40;;
4555;SDS011;2290;48.674;9.018;2023-02-17T02:04:53;3.83;;;2.50;;
4555;SDS011;2290;48.674;9.018;2023-02-17T02:07:20;4.30;;;2.40;;
4555;SDS011;2290;48.674;9.018;2023-02-17T02:09:53;4.60;;;2.50;;
4555;SDS011;2290;48.674;9.018;2023-02-17T02:12:22;4.53;;;2.60;;
4555;SDS011;2290;48.674;9.018;2023-02-17T02:15:11;3.63;;;2.33;;
4555;SDS011;2290;48.674;9.018;2023-02-17T02:20:37;5.83;;;2.40;;
4555;SDS011;2290;48.674;9.018;2023-02-17T02:23:30;4.80;;;2.60;;
4555;SDS011;2290;48.674;9.018;2023-02-17T02:34:42;4.20;;;2.30;;
4555;SDS011;2290;48.674;9.018;2023-02-17T02:37:17;4.00;;;2.70;;
4555;SDS011;2290;48.674;9.018;2023-02-17T02:39:49;4.83;;;2.83;;
4555;SDS011;2290;48.674;9.018;2023-02-17T02:42:19;3.50;;;2.47;;
4555;SDS011;2290;48.674;9.018;2023-02-17T02:44:51;6.13;;;2.60;;
4555;SDS011;2290;48.674;9.018;2023-02-17T02:47:34;4.27;;;2.60;;
4555;SDS011;2290;48.674;9.018;2023-02-17T02:50:13;3.63;;;2.37;;
4555;SDS011;2290;48.674;9.018;2023-02-17T02:52:55;3.93;;;2.40;;
4555;SDS011;2290;48.674;9.018;2023-02-17T03:03:34;5.03;;;2.70;;
4555;SDS011;2290;48.674;9.018;2023-02-17T03:06:10;4.10;;;2.63;;
4555;SDS011;2290;48.674;9.018;2023-02-17T03:08:45;4.03;;;2.47;;
4555;SDS011;2290;48.674;9.018;2023-02-17T03:11:15;4.13;;;2.40;;
4555;SDS011;2290;48.674;9.018;2023-02-17T03:13:58;8.20;;;2.47;;
4555;SDS011;2290;48.674;9.018;2023-02-17T03:16:28;11.03;;;2.90;;
4555;SDS011;2290;48.674;9.018;2023-02-17T03:18:54;3.00;;;2.40;;
4555;SDS011;2290;48.674;9.018;2023-02-17T03:21:19;4.23;;;2.37;;
4555;SDS011;2290;48.674;9.018;2023-02-17T03:23:47;4.90;;;2.47;;
4555;SDS011;2290;48.674;9.018;2023-02-17T03:26:13;5.37;;;2.87;;
4555;SDS011;2290;48.674;9.018;2023-02-17T03:28:39;10.10;;;2.83;;
4555;SDS011;2290;48.674;9.018;2023-02-17T03:31:07;6.60;;;2.97;;
4555;SDS011;2290;48.674;9.018;2023-02-17T03:33:33;5.17;;;2.90;;
4555;SDS011;2290;48.674;9.018;2023-02-17T03:35:59;3.20;;;2.50;;
4555;SDS011;2290;48.674;9.018;2023-02-17T03:38:25;3.97;;;2.60;;
4555;SDS011;2290;48.674;9.018;2023-02-17T03:40:52;4.27;;;2.50;;
4555;SDS011;2290;48.674;9.018;2023-02-17T03:43:17;4.80;;;2.60;;
4555;SDS011;2290;48.674;9.018;2023-02-17T03:45:43;3.70;;;2.63;;
4555;SDS011;2290;48.674;9.018;2023-02-17T03:48:10;5.50;;;2.67;;
4555;SDS011;2290;48.674;9.018;2023-02-17T03:50:35;3.90;;;2.40;;
4555;SDS011;2290;48.674;9.018;2023-02-17T03:53:01;7.07;;;2.90;;
4555;SDS011;2290;48.674;9.018;2023-02-17T03:55:26;3.37;;;2.40;;
4555;SDS011;2290;48.674;9.018;2023-02-17T03:57:52;5.00;;;2.50;;
4555;SDS011;2290;48.674;9.018;2023-02-17T04:00:17;4.60;;;2.87;;
4555;SDS011;2290;48.674;9.018;2023-02-17T04:02:43;4.67;;;2.30;;
4555;SDS011;2290;48.674;9.018;2023-02-17T04:05:09;4.67;;;2.80;;
4555;SDS011;2290;48.674;9.018;2023-02-17T04:07:35;3.77;;;2.43;;
4555;SDS011;2290;48.674;9.018;2023-02-17T04:10:02;5.47;;;3.10;;
4555;SDS011;2290;48.674;9.018;2023-02-17T04:12:28;5.77;;;2.60;;
4555;SDS011;2290;48.674;9.018;2023-02-17T04:14:55;4.90;;;3.43;;
4555;SDS011;2290;48.674;9.018;2023-02-17T04:17:20;4.40;;;2.70;;
4555;SDS011;2290;48.674;9.018;2023-02-17T04:19:47;6.37;;;2.80;;
4555;SDS011;2290;48.674;9.018;2023-02-17T04:22:13;3.80;;;2.60;;
4555;SDS011;2290;48.674;9.018;2023-02-17T04:24:40;5.30;;;2.77;;
4555;SDS011;2290;48.674;9.018;2023-02-17T04:27:07;3.97;;;2.50;;
4555;SDS011;2290;48.674;9.018;2023-02-17T04:29:34;3.00;;;2.00;;
4555;SDS011;2290;48.674;9.018;2023-02-17T04:31:59;4.90;;;2.40;;
4555;SDS011;2290;48.674;9.018;2023-02-17T04:34:25;4.10;;;2.10;;
4555;SDS011;2290;48.674;9.018;2023-02-17T04:36:51;4.30;;;2.40;;
4555;SDS011;2290;48.674;9.018;2023-02-17T04:39:17;3.20;;;2.47;;
4555;SDS011;2290;48.674;9.018;2023-02-17T04:41:42;6.27;;;2.47;;
4555;SDS011;2290;48.674;9.018;2023-02-17T04:44:08;4.80;;;2.47;;
4555;SDS011;2290;48.674;9.018;2023-02-17T04:46:35;4.87;;;2.97;;
4555;SDS011;2290;48.674;9.018;2023-02-17T04:49:01;7.93;;;2.53;;
4555;SDS011;2290;48.674;9.018;2023-02-17T04:51:28;6.43;;;2.90;;
4555;SDS011;2290;48.674;9.018;2023-02-17T04:53:53;4.23;;;2.27;;
4555;SDS011;2290;48.674;9.018;2023-02-17T04:56:19;3.07;;;2.17;;
4555;SDS011;2290;48.674;9.018;2023-02-17T04:58:44;4.23;;;2.43;;
4555;SDS011;2290;48.674;9.018;2023-02-17T05:01:11;5.13;;;2.50;;
4555;SDS011;2290;48.674;9.018;2023-02-17T05:03:38;7.60;;;2.90;;
4555;SDS011;2290;48.674;9.018;2023-02-17T05:06:04;5.73;;;2.77;;
4555;SDS011;2290;48.674;9.018;2023-02-17T05:08:30;4.00;;;2.60;;
4555;SDS011;2290;48.674;9.018;2023-02-17T05:10:55;4.67;;;2.83;;
4555;SDS011;2290;48.674;9.018;2023-02-17T05:13:21;5.77;;;3.03;;
4555;SDS011;2290;48.674;9.018;2023-02-17T05:15:46;3.00;;;2.13;;
4555;SDS011;2290;48.674;9.018;2023-02-17T05:18:12;4.03;;;2.13;;
4555;SDS011;2290;48.674;9.018;2023-02-17T05:20:38;4.60;;;2.60;;
4555;SDS011;2290;48.674;9.018;2023-02-17T05:23:03;4.97;;;3.03;;
4555;SDS011;2290;48.674;9.018;2023-02-17T05:25:29;5.53;;;3.17;;
4555;SDS011;2290;48.674;9.018;2023-02-17T05:27:55;9.10;;;3.27;;
4555;SDS011;2290;48.674;9.018;2023-02-17T05:30:21;5.77;;;2.63;;
4555;SDS011;2290;48.674;9.018;2023-02-17T05:32:46;3.83;;;2.50;;
4555;SDS011;2290;48.674;9.018;2023-02-17T05:35:12;2.97;;;2.40;;
4555;SDS011;2290;48.674;9.018;2023-02-17T05:37:37;3.07;;;2.33;;
4555;SDS011;2290;48.674;9.018;2023-02-17T05:40:03;5.63;;;2.80;;
4555;SDS011;2290;48.674;9.018;2023-02-17T05:42:29;3.30;;;2.40;;
4555;SDS011;2290;48.674;9.018;2023-02-17T05:44:55;7.17;;;2.40;;
4555;SDS011;2290;48.674;9.018;2023-02-17T05:47:21;4.37;;;2.70;;
4555;SDS011;2290;48.674;9.018;2023-02-17T05:49:48;4.80;;;2.50;;
4555;SDS011;2290;48.674;9.018;2023-02-17T05:52:14;3.80;;;2.20;;
4555;SDS011;2290;48.674;9.018;2023-02-17T05:54:42;2.70;;;2.13;;
4555;SDS011;2290;48.674;9.018;2023-02-17T05:57:08;3.20;;;2.50;;
4555;SDS011;2290;48.674;9.018;2023-02-17T05:59:33;4.33;;;2.60;;
4555;SDS011;2290;48.674;9.018;2023-02-17T06:02:00;3.50;;;2.23;;
4555;SDS011;2290;48.674;9.018;2023-02-17T06:04:26;3.60;;;2.60;;
4555;SDS011;2290;48.674;9.018;2023-02-17T06:06:53;4.03;;;2.40;;
4555;SDS011;2290;48.674;9.018;2023-02-17T06:09:18;3.53;;;2.70;;
4555;SDS011;2290;48.674;9.018;2023-02-17T06:11:44;6.37;;;2.97;;
4555;SDS011;2290;48.674;9.018;2023-02-17T06:14:09;5.90;;;2.67;;
4555;SDS011;2290;48.674;9.018;2023-02-17T06:16:35;4.07;;;2.33;;
4555;SDS011;2290;48.674;9.018;2023-02-17T06:19:02;8.33;;;2.73;;
4555;SDS011;2290;48.674;9.018;2023-02-17T06:21:29;5.23;;;2.77;;
4555;SDS011;2290;48.674;9.018;2023-02-17T06:23:54;11.60;;;2.87;;
4555;SDS011;2290;48.674;9.018;2023-02-17T06:26:22;4.03;;;2.50;;
4555;SDS011;2290;48.674;9.018;2023-02-17T06:28:48;3.90;;;3.17;;
4555;SDS011;2290;48.674;9.018;2023-02-17T06:31:13;3.20;;;2.00;;
4555;SDS011;2290;48.674;9.018;2023-02-17T06:33:39;3.63;;;2.53;;
4555;SDS011;2290;48.674;9.018;2023-02-17T06:36:04;5.10;;;2.27;;
4555;SDS011;2290;48.674;9.018;2023-02-17T06:38:31;3.53;;;2.43;;
4555;SDS011;2290;48.674;9.018;2023-02-17T06:40:57;3.67;;;2.53;;
4555;SDS011;2290;48.674;9.018;2023-02-17T06:43:24;3.73;;;2.83;;
4555;SDS011;2290;48.674;9.018;2023-02-17T06:45:50;5.60;;;2.73;;
4555;SDS011;2290;48.674;9.018;2023-02-17T06:48:16;5.73;;;2.57;;
4555;SDS011;2290;48.674;9.018;2023-02-17T06:50:44;5.47;;;2.43;;
4555;SDS011;2290;48.674;9.018;2023-02-17T06:53:10;9.43;;;2.50;;
4555;SDS011;2290;48.674;9.018;2023-02-17T06:55:37;4.07;;;2.80;;
4555;SDS011;2290;48.674;9.018;2023-02-17T06:58:04;3.80;;;2.43;;
4555;SDS011;2290;48.674;9.018;2023-02-17T07:00:30;4.87;;;2.53;;
4555;SDS011;2290;48.674;9.018;2023-02-17T07:02:55;3.67;;;2.37;;
4555;SDS011;2290;48.674;9.018;2023-02-17T07:05:21;3.17;;;2.40;;
4555;SDS011;2290;48.674;9.018;2023-02-17T07:07:46;3.67;;;2.20;;
4555;SDS011;2290;48.674;9.018;2023-02-17T07:10:12;8.90;;;3.13;;
4555;SDS011;2290;48.674;9.018;2023-02-17T07:12:38;3.20;;;2.03;;
4555;SDS011;2290;48.674;9.018;2023-02-17T07:15:05;4.57;;;2.40;;
4555;SDS011;2290;48.674;9.018;2023-02-17T07:17:31;3.30;;;2.20;;
4555;SDS011;2290;48.674;9.018;2023-02-17T07:19:56;4.43;;;2.77;;
4555;SDS011;2290;48.674;9.018;2023-02-17T07:22:22;3.23;;;2.03;;
4555;SDS011;2290;48.674;9.018;2023-02-17T07:24:50;4.60;;;2.37;;
4555;SDS011;2290;48.674;9.018;2023-02-17T07:27:16;3.27;;;2.50;;
4555;SDS011;2290;48.674;9.018;2023-02-17T07:29:45;3.77;;;2.57;;
4555;SDS011;2290;48.674;9.018;2023-02-17T07:32:10;4.60;;;2.00;;
4555;SDS011;2290;48.674;9.018;2023-02-17T07:34:36;4.07;;;2.00;;
4555;SDS011;2290;48.674;9.018;2023-02-17T07:37:02;2.83;;;1.90;;
4555;SDS011;2290;48.674;9.018;2023-02-17T07:39:28;2.63;;;1.80;;
4555;SDS011;2290;48.674;9.018;2023-02-17T07:41:53;4.00;;;2.20;;
4555;SDS011;2290;48.674;9.018;2023-02-17T07:44:26;6.03;;;2.50;;
4555;SDS011;2290;48.674;9.018;2023-02-17T07:46:52;4.43;;;2.10;;
4555;SDS011;2290;48.674;9.018;2023-02-17T07:49:19;3.07;;;2.23;;
4555;SDS011;2290;48.674;9.018;2023-02-17T07:51:45;6.80;;;2.30;;
4555;SDS011;2290;48.674;9.018;2023-02-17T07:54:12;4.17;;;2.07;;
4555;SDS011;2290;48.674;9.018;2023-02-17T07:56:38;2.90;;;2.13;;
4555;SDS011;2290;48.674;9.018;2023-02-17T07:59:09;3.63;;;2.37;;
4555;SDS011;2290;48.674;9.018;2023-02-17T08:01:35;3.60;;;1.90;;
4555;SDS011;2290;48.674;9.018;2023-02-17T08:04:01;2.30;;;1.90;;
4555;SDS011;2290;48.674;9.018;2023-02-17T08:06:29;3.63;;;2.43;;
4555;SDS011;2290;48.674;9.018;2023-02-17T08:08:56;4.07;;;2.63;;
4555;SDS011;2290;48.674;9.018;2023-02-17T08:11:40;7.17;;;2.80;;
4555;SDS011;2290;48.674;9.018;2023-02-17T08:14:26;4.93;;;3.23;;
4555;SDS011;2290;48.674;9.018;2023-02-17T08:16:53;4.83;;;2.40;;
4555;SDS011;2290;48.674;9.018;2023-02-17T08:19:19;3.17;;;1.80;;
4555;SDS011;2290;48.674;9.018;2023-02-17T08:21:45;2.73;;;1.97;;
4555;SDS011;2290;48.674;9.018;2023-02-17T08:24:11;3.87;;;2.20;;
4555;SDS011;2290;48.674;9.018;2023-02-17T08:26:37;2.67;;;2.10;;
4555;SDS011;2290;48.674;9.018;2023-02-17T08:29:04;3.20;;;2.00;;
4555;SDS011;2290;48.674;9.018;2023-02-17T08:31:32;2.87;;;2.00;;
4555;SDS011;2290;48.674;9.018;2023-02-17T08:34:00;2.90;;;2.23;;
4555;SDS011;2290;48.674;9.018;2023-02-17T08:36:28;4.03;;;2.20;;
4555;SDS011;2290;48.674;9.018;2023-02-17T08:38:55;5.63;;;2.43;;
4555;SDS011;2290;48.674;9.018;2023-02-17T08:41:29;3.30;;;1.80;;
4555;SDS011;2290;48.674;9.018;2023-02-17T08:44:00;5.67;;;2.20;;
4555;SDS011;2290;48.674;9.018;2023-02-17T08:46:26;1.60;;;1.50;;
4555;SDS011;2290;48.674;9.018;2023-02-17T08:48:53;3.93;;;2.13;;
4555;SDS011;2290;48.674;9.018;2023-02-17T08:51:20;4.03;;;2.60;;
4555;SDS011;2290;48.674;9.018;2023-02-17T08:53:50;3.20;;;1.83;;
4555;SDS011;2290;48.674;9.018;2023-02-17T08:56:19;3.17;;;2.03;;
4555;SDS011;2290;48.674;9.018;2023-02-17T08:58:45;2.40;;;1.70;;
4555;SDS011;2290;48.674;9.018;2023-02-17T09:01:11;4.80;;;2.47;;
4555;SDS011;2290;48.674;9.018;2023-02-17T09:03:36;2.90;;;2.10;;
4555;SDS011;2290;48.674;9.018;2023-02-17T09:06:04;3.43;;;1.97;;
4555;SDS011;2290;48.674;9.018;2023-02-17T09:08:30;5.07;;;2.10;;
4555;SDS011;2290;48.674;9.018;2023-02-17T09:10:56;3.00;;;2.47;;
4555;SDS011;2290;48.674;9.018;2023-02-17T09:13:23;3.00;;;2.10;;
4555;SDS011;2290;48.674;9.018;2023-02-17T09:15:50;6.93;;;2.23;;
4555;SDS011;2290;48.674;9.018;2023-02-17T09:18:17;2.53;;;1.90;;
4555;SDS011;2290;48.674;9.018;2023-02-17T09:20:45;2.80;;;2.27;;
4555;SDS011;2290;48.674;9.018;2023-02-17T09:23:13;3.80;;;2.23;;
4555;SDS011;2290;48.674;9.018;2023-02-17T09:25:41;3.47;;;2.17;;
4555;SDS011;2290;48.674;9.018;2023-02-17T09:28:07;4.27;;;2.07;;
4555;SDS011;2290;48.674;9.018;2023-02-17T09:30:33;2.90;;;1.87;;
4555;SDS011;2290;48.674;9.018;2023-02-17T09:32:58;2.70;;;2.03;;
4555;SDS011;2290;48.674;9.018;2023-02-17T09:35:26;2.87;;;1.97;;
4555;SDS011;2290;48.674;9.018;2023-02-17T09:37:52;2.83;;;1.90;;
4555;SDS011;2290;48.674;9.018;2023-02-17T09:40:19;3.23;;;2.07;;
4555;SDS011;2290;48.674;9.018;2023-02-17T09:42:48;2.70;;;2.13;;
4555;SDS011;2290;48.674;9.018;2023-02-17T09:45:18;3.00;;;2.10;;
4555;SDS011;2290;48.674;9.018;2023-02-17T09:47:54;5.63;;;1.83;;
4555;SDS011;2290;48.674;9.018;2023-02-17T09:50:25;4.20;;;1.80;;
4555;SDS011;2290;48.674;9.018;2023-02-17T09:53:02;2.50;;;1.60;;
4555;SDS011;2290;48.674;9.018;2023-02-17T09:55:45;3.50;;;2.10;;
4555;SDS011;2290;48.674;9.018;2023-02-17T10:00:56;2.40;;;1.70;;
4555;SDS011;2290;48.674;9.018;2023-02-17T10:04:11;2.57;;;1.80;;
4555;SDS011;2290;48.674;9.018;2023-02-17T10:06:15;3.27;;;1.63;;
4555;SDS011;2290;48.674;9.018;2023-02-17T10:09:03;3.10;;;1.90;;
4555;SDS011;2290;48.674;9.018;2023-02-17T10:17:24;4.27;;;2.20;;
4555;SDS011;2290;48.674;9.018;2023-02-17T10:20:04;2.53;;;1.97;;
4555;SDS011;2290;48.674;9.018;2023-02-17T10:22:37;2.50;;;1.60;;
4555;SDS011;2290;48.674;9.018;2023-02-17T10:25:13;3.23;;;1.77;;
4555;SDS011;2290;48.674;9.018;2023-02-17T10:27:52;1.80;;;1.63;;
4555;SDS011;2290;48.674;9.018;2023-02-17T10:35:51;2.50;;;1.60;;
4555;SDS011;2290;48.674;9.018;2023-02-17T10:41:13;1.73;;;1.47;;
4555;SDS011;2290;48.674;9.018;2023-02-17T10:43:42;1.77;;;1.60;;
4555;SDS011;2290;48.674;9.018;2023-02-17T10:46:12;2.00;;;1.60;;
4555;SDS011;2290;48.674;9.018;2023-02-17T10:51:06;2.13;;;1.47;;
4555;SDS011;2290;48.674;9.018;2023-02-17T10:53:37;3.03;;;1.20;;
4555;SDS011;2290;48.674;9.018;2023-02-17T10:56:17;1.63;;;1.10;;
4555;SDS011;2290;48.674;9.018;2023-02-17T11:01:23;2.70;;;1.60;;
4555;SDS011;2290;48.674;9.018;2023-02-17T11:03:59;1.97;;;1.60;;
4555;SDS011;2290;48.674;9.018;2023-02-17T11:06:35;3.67;;;1.50;;
4555;SDS011;2290;48.674;9.018;2023-02-17T11:09:15;2.33;;;1.37;;
4555;SDS011;2290;48.674;9.018;2023-02-17T11:11:57;1.63;;;1.43;;
4555;SDS011;2290;48.674;9.018;2023-02-17T11:14:27;1.80;;;1.27;;
4555;SDS011;2290;48.674;9.018;2023-02-17T11:16:56;1.70;;;1.20;;
4555;SDS011;2290;48.674;9.018;2023-02-17T11:19:29;1.60;;;1.37;;
4555;SDS011;2290;48.674;9.018;2023-02-17T11:21:58;1.53;;;1.20;;
4555;SDS011;2290;48.674;9.018;2023-02-17T11:24:31;1.60;;;1.10;;
4555;SDS011;2290;48.674;9.018;2023-02-17T11:27:02;1.90;;;1.47;;
4555;SDS011;2290;48.674;9.018;2023-02-17T11:29:32;1.37;;;1.17;;
4555;SDS011;2290;48.674;9.018;2023-02-17T11:32:02;1.20;;;1.10;;
4555;SDS011;2290;48.674;9.018;2023-02-17T11:34:32;1.60;;;1.40;;
4555;SDS011;2290;48.674;9.018;2023-02-17T11:39:41;1.80;;;1.40;;
4555;SDS011;2290;48.674;9.018;2023-02-17T11:42:22;2.63;;;1.30;;
4555;SDS011;2290;48.674;9.018;2023-02-17T11:44:50;1.73;;;1.37;;
4555;SDS011;2290;48.674;9.018;2023-02-17T11:47:32;1.80;;;1.30;;
4555;SDS011;2290;48.674;9.018;2023-02-17T11:58:32;2.67;;;1.63;;
4555;SDS011;2290;48.674;9.018;2023-02-17T12:06:12;1.40;;;1.30;;
4555;SDS011;2290;48.674;9.018;2023-02-17T12:11:29;1.87;;;1.20;;
4555;SDS011;2290;48.674;9.018;2023-02-17T12:14:15;1.40;;;1.00;;
4555;SDS011;2290;48.674;9.018;2023-02-17T12:19:43;2.40;;;1.27;;
4555;SDS011;2290;48.674;9.018;2023-02-17T12:22:49;1.80;;;1.40;;
4555;SDS011;2290;48.674;9.018;2023-02-17T12:25:30;1.43;;;1.20;;
4555;SDS011;2290;48.674;9.018;2023-02-17T12:28:08;1.63;;;1.10;;
4555;SDS011;2290;48.674;9.018;2023-02-17T12:33:21;4.47;;;1.33;;
4555;SDS011;2290;48.674;9.018;2023-02-17T12:36:00;1.80;;;1.47;;
4555;SDS011;2290;48.674;9.018;2023-02-17T12:38:37;1.40;;;1.30;;
4555;SDS011;2290;48.674;9.018;2023-02-17T12:41:13;1.37;;;1.23;;
4555;SDS011;2290;48.674;9.018;2023-02-17T12:46:58;1.63;;;1.20;;
4555;SDS011;2290;48.674;9.018;2023-02-17T12:49:48;1.73;;;1.20;;
4555;SDS011;2290;48.674;9.018;2023-02-17T12:55:19;1.27;;;1.17;;
4555;SDS011;2290;48.674;9.018;2023-02-17T12:57:54;1.93;;;1.60;;
4555;SDS011;2290;48.674;9.018;2023-02-17T13:00:35;2.47;;;1.40;;
4555;SDS011;2290;48.674;9.018;2023-02-17T13:03:04;3.47;;;1.50;;
4555;SDS011;2290;48.674;9.018;2023-02-17T13:05:32;2.57;;;1.33;;
4555;SDS011;2290;48.674;9.018;2023-02-17T13:08:05;1.97;;;1.20;;
4555;SDS011;2290;48.674;9.018;2023-02-17T13:10:40;1.30;;;1.20;;
4555;SDS011;2290;48.674;9.018;2023-02-17T13:15:40;1.37;;;1.27;;
4555;SDS011;2290;48.674;9.018;2023-02-17T13:18:13;2.40;;;1.20;;
4555;SDS011;2290;48.674;9.018;2023-02-17T13:23:40;1.37;;;1.27;;
4555;SDS011;2290;48.674;9.018;2023-02-17T13:28:38;1.97;;;1.40;;
4555;SDS011;2290;48.674;9.018;2023-02-17T13:31:10;1.60;;;1.50;;
4555;SDS011;2290;48.674;9.018;2023-02-17T13:41:32;2.80;;;1.23;;
4555;SDS011;2290;48.674;9.018;2023-02-17T13:49:34;1.93;;;1.60;;
4555;SDS011;2290;48.674;9.018;2023-02-17T13:52:14;2.50;;;1.10;;
4555;SDS011;2290;48.674;9.018;2023-02-17T13:54:50;1.70;;;1.30;;
4555;SDS011;2290;48.674;9.018;2023-02-17T13:57:25;1.53;;;1.40;;
4555;SDS011;2290;48.674;9.018;2023-02-17T14:00:06;2.17;;;1.50;;
4555;SDS011;2290;48.674;9.018;2023-02-17T14:02:49;1.60;;;1.40;;
4555;SDS011;2290;48.674;9.018;2023-02-17T14:05:16;1.83;;;1.47;;
4555;SDS011;2290;48.674;9.018;2023-02-17T14:07:46;2.30;;;1.60;;
4555;SDS011;2290;48.674;9.018;2023-02-17T14:10:17;1.97;;;1.50;;
4555;SDS011;2290;48.674;9.018;2023-02-17T14:12:44;2.10;;;1.53;;
4555;SDS011;2290;48.674;9.018;2023-02-17T14:15:16;1.87;;;1.70;;
4555;SDS011;2290;48.674;9.018;2023-02-17T14:17:42;2.00;;;1.70;;
4555;SDS011;2290;48.674;9.018;2023-02-17T14:20:31;1.87;;;1.67;;
4555;SDS011;2290;48.674;9.018;2023-02-17T14:23:08;2.13;;;1.90;;
4555;SDS011;2290;48.674;9.018;2023-02-17T14:25:40;2.00;;;1.70;;
4555;SDS011;2290;48.674;9.018;2023-02-17T14:28:21;1.70;;;1.60;;
4555;SDS011;2290;48.674;9.018;2023-02-17T14:30:49;2.50;;;1.90;;
4555;SDS011;2290;48.674;9.018;2023-02-17T14:33:18;1.80;;;1.50;;
4555;SDS011;2290;48.674;9.018;2023-02-17T14:35:58;2.90;;;1.80;;
4555;SDS011;2290;48.674;9.018;2023-02-17T14:38:33;2.53;;;1.90;;
4555;SDS011;2290;48.674;9.018;2023-02-17T14:41:04;3.40;;;2.00;;
4555;SDS011;2290;48.674;9.018;2023-02-17T14:43:31;4.00;;;1.77;;
4555;SDS011;2290;48.674;9.018;2023-02-17T14:45:59;2.53;;;1.70;;
4555;SDS011;2290;48.674;9.018;2023-02-17T14:48:25;2.53;;;1.57;;
4555;SDS011;2290;48.674;9.018;2023-02-17T14:50:50;3.30;;;1.97;;
4555;SDS011;2290;48.674;9.018;2023-02-17T14:56:12;10.03;;;3.70;;
4555;SDS011;2290;48.674;9.018;2023-02-17T14:58:54;3.33;;;2.10;;
4555;SDS011;2290;48.674;9.018;2023-02-17T15:01:22;2.70;;;1.93;;
4555;SDS011;2290;48.674;9.018;2023-02-17T15:03:51;6.30;;;2.00;;
4555;SDS011;2290;48.674;9.018;2023-02-17T15:06:18;2.07;;;1.63;;
4555;SDS011;2290;48.674;9.018;2023-02-17T15:08:47;3.73;;;1.90;;
4555;SDS011;2290;48.674;9.018;2023-02-17T15:11:24;4.83;;;2.70;;
4555;SDS011;2290;48.674;9.018;2023-02-17T15:13:53;2.20;;;2.00;;
4555;SDS011;2290;48.674;9.018;2023-02-17T15:16:19;2.43;;;1.70;;
4555;SDS011;2290;48.674;9.018;2023-02-17T15:18:46;2.30;;;2.00;;
4555;SDS011;2290;48.674;9.018;2023-02-17T15:21:15;5.50;;;2.00;;
4555;SDS011;2290;48.674;9.018;2023-02-17T15:23:59;7.13;;;2.00;;
4555;SDS011;2290;48.674;9.018;2023-02-17T15:26:26;2.10;;;1.80;;
4555;SDS011;2290;48.674;9.018;2023-02-17T15:28:55;2.80;;;2.00;;
4555;SDS011;2290;48.674;9.018;2023-02-17T15:31:21;5.00;;;2.30;;
4555;SDS011;2290;48.674;9.018;2023-02-17T15:33:54;2.20;;;2.00;;
4555;SDS011;2290;48.674;9.018;2023-02-17T15:36:21;3.30;;;1.80;;
4555;SDS011;2290;48.674;9.018;2023-02-17T15:38:47;3.57;;;1.90;;
4555;SDS011;2290;48.674;9.018;2023-02-17T15:41:15;3.17;;;1.80;;
4555;SDS011;2290;48.674;9.018;2023-02-17T15:43:46;2.30;;;1.77;;
4555;SDS011;2290;48.674;9.018;2023-02-17T15:46:14;2.40;;;2.07;;
4555;SDS011;2290;48.674;9.018;2023-02-17T15:48:43;2.30;;;1.70;;
4555;SDS011;2290;48.674;9.018;2023-02-17T15:51:12;2.70;;;1.73;;
4555;SDS011;2290;48.674;9.018;2023-02-17T15:53:42;2.43;;;1.90;;
4555;SDS011;2290;48.674;9.018;2023-02-17T15:56:13;3.50;;;1.60;;
4555;SDS011;2290;48.674;9.018;2023-02-17T15:58:42;3.30;;;1.80;;
4555;SDS011;2290;48.674;9.018;2023-02-17T16:01:16;2.83;;;2.00;;
4555;SDS011;2290;48.674;9.018;2023-02-17T16:03:52;2.93;;;1.77;;
4555;SDS011;2290;48.674;9.018;2023-02-17T16:06:20;3.87;;;1.80;;
4555;SDS011;2290;48.674;9.018;2023-02-17T16:08:45;4.30;;;1.77;;
4555;SDS011;2290;48.674;9.018;2023-02-17T16:11:13;3.10;;;2.23;;
4555;SDS011;2290;48.674;9.018;2023-02-17T16:13:41;2.27;;;1.80;;
4555;SDS011;2290;48.674;9.018;2023-02-17T16:16:13;2.47;;;1.73;;
4555;SDS011;2290;48.674;9.018;2023-02-17T16:18:43;3.20;;;1.80;;
4555;SDS011;2290;48.674;9.018;2023-02-17T16:21:09;2.90;;;1.90;;
4555;SDS011;2290;48.674;9.018;2023-02-17T16:23:35;3.40;;;1.70;;
4555;SDS011;2290;48.674;9.018;2023-02-17T16:26:01;3.47;;;1.83;;
4555;SDS011;2290;48.674;9.018;2023-02-17T16:28:28;3.67;;;2.17;;
4555;SDS011;2290;48.674;9.018;2023-02-17T16:30:56;2.43;;;1.80;;
4555;SDS011;2290;48.674;9.018;2023-02-17T16:33:21;2.10;;;1.60;;
4555;SDS011;2290;48.674;9.018;2023-02-17T16:35:48;2.43;;;1.70;;
4555;SDS011;2290;48.674;9.018;2023-02-17T16:38:15;2.77;;;2.10;;
4555;SDS011;2290;48.674;9.018;2023-02-17T16:40:44;2.93;;;1.80;;
4555;SDS011;2290;48.674;9.018;2023-02-17T16:43:12;3.00;;;1.90;;
4555;SDS011;2290;48.674;9.018;2023-02-17T16:45:47;6.27;;;2.20;;
4555;SDS011;2290;48.674;9.018;2023-02-17T16:48:24;2.73;;;1.90;;
4555;SDS011;2290;48.674;9.018;2023-02-17T16:50:53;2.87;;;1.90;;
4555;SDS011;2290;48.674;9.018;2023-02-17T16:53:21;2.87;;;1.60;;
4555;SDS011;2290;48.674;9.018;2023-02-17T16:55:46;4.70;;;1.60;;
4555;SDS011;2290;48.674;9.018;2023-02-17T16:58:22;2.20;;;1.70;;
4555;SDS011;2290;48.674;9.018;2023-02-17T17:00:50;2.97;;;2.10;;
4555;SDS011;2290;48.674;9.018;2023-02-17T17:03:17;2.63;;;1.47;;
4555;SDS011;2290;48.674;9.018;2023-02-17T17:05:44;2.90;;;1.70;;
4555;SDS011;2290;48.674;9.018;2023-02-17T17:08:11;3.60;;;1.97;;